sensor_id;sensor_type;location;lat;lon;timestamp;P1;durP1;ratioP1;P2;durP2;ratioP2
61091;SDS011;46975;51.898;11.444;2023-01-10T00:01:58;6.13;;;2.50;;
61091;SDS011;46975;51.898;11.444;2023-01-10T00:04:24;2.40;;;1.90;;
61091;SDS011;46975;51.898;11.444;2023-01-10T00:06:50;5.28;;;2.53;;
61091;SDS011;46975;51.898;11.444;2023-01-10T00:09:16;8.07;;;2.75;;
61091;SDS011;46975;51.898;11.444;2023-01-10T00:11:42;8.48;;;2.15;;
61091;SDS011;46975;51.898;11.444;2023-01-10T00:14:26;6.25;;;2.42;;
61091;SDS011;46975;51.898;11.444;2023-01-10T00:16:53;5.65;;;2.55;;
61091;SDS011;46975;51.898;11.444;2023-01-10T00:19:18;5.00;;;2.78;;
61091;SDS011;46975;51.898;11.444;2023-01-10T00:21:44;8.80;;;2.95;;
61091;SDS011;46975;51.898;11.444;2023-01-10T00:24:10;3.15;;;2.00;;
61091;SDS011;46975;51.898;11.444;2023-01-10T00:26:54;10.82;;;3.42;;
61091;SDS011;46975;51.898;11.444;2023-01-10T00:29:21;4.43;;;3.10;;
61091;SDS011;46975;51.898;11.444;2023-01-10T00:31:51;3.67;;;2.05;;
61091;SDS011;46975;51.898;11.444;2023-01-10T00:34:17;5.47;;;2.90;;
61091;SDS011;46975;51.898;11.444;2023-01-10T00:36:43;6.90;;;2.80;;
61091;SDS011;46975;51.898;11.444;2023-01-10T00:39:11;7.07;;;3.03;;
61091;SDS011;46975;51.898;11.444;2023-01-10T00:41:37;9.20;;;3.25;;
61091;SDS011;46975;51.898;11.444;2023-01-10T00:44:22;7.05;;;2.92;;
61091;SDS011;46975;51.898;11.444;2023-01-10T00:46:48;10.05;;;2.97;;
61091;SDS011;46975;51.898;11.444;2023-01-10T00:49:13;6.32;;;2.85;;
61091;SDS011;46975;51.898;11.444;2023-01-10T00:51:40;9.80;;;3.75;;
61091;SDS011;46975;51.898;11.444;2023-01-10T00:54:10;7.80;;;3.17;;
61091;SDS011;46975;51.898;11.444;2023-01-10T00:56:36;9.18;;;2.92;;
61091;SDS011;46975;51.898;11.444;2023-01-10T00:59:02;8.52;;;3.35;;
61091;SDS011;46975;51.898;11.444;2023-01-10T01:01:29;7.22;;;3.95;;
61091;SDS011;46975;51.898;11.444;2023-01-10T01:03:54;4.75;;;2.75;;
61091;SDS011;46975;51.898;11.444;2023-01-10T01:06:20;7.63;;;2.90;;
61091;SDS011;46975;51.898;11.444;2023-01-10T01:08:45;8.35;;;3.53;;
61091;SDS011;46975;51.898;11.444;2023-01-10T01:11:11;7.38;;;3.25;;
61091;SDS011;46975;51.898;11.444;2023-01-10T01:13:37;8.93;;;3.67;;
61091;SDS011;46975;51.898;11.444;2023-01-10T01:16:03;5.28;;;2.72;;
61091;SDS011;46975;51.898;11.444;2023-01-10T01:18:28;8.05;;;2.42;;
61091;SDS011;46975;51.898;11.444;2023-01-10T01:20:55;5.28;;;2.38;;
61091;SDS011;46975;51.898;11.444;2023-01-10T01:23:22;5.72;;;2.30;;
61091;SDS011;46975;51.898;11.444;2023-01-10T01:25:49;5.75;;;2.17;;
61091;SDS011;46975;51.898;11.444;2023-01-10T01:28:15;4.00;;;2.00;;
61091;SDS011;46975;51.898;11.444;2023-01-10T01:30:41;8.18;;;2.28;;
61091;SDS011;46975;51.898;11.444;2023-01-10T01:33:06;6.97;;;2.10;;
61091;SDS011;46975;51.898;11.444;2023-01-10T01:35:32;2.90;;;2.05;;
61091;SDS011;46975;51.898;11.444;2023-01-10T01:37:58;7.95;;;2.20;;
61091;SDS011;46975;51.898;11.444;2023-01-10T01:40:24;2.60;;;1.77;;
61091;SDS011;46975;51.898;11.444;2023-01-10T01:42:50;4.50;;;1.80;;
61091;SDS011;46975;51.898;11.444;2023-01-10T01:50:36;5.50;;;1.83;;
61091;SDS011;46975;51.898;11.444;2023-01-10T01:53:32;5.30;;;1.58;;
61091;SDS011;46975;51.898;11.444;2023-01-10T01:56:46;3.42;;;1.85;;
61091;SDS011;46975;51.898;11.444;2023-01-10T01:59:15;4.82;;;1.83;;
61091;SDS011;46975;51.898;11.444;2023-01-10T02:01:48;4.68;;;2.10;;
61091;SDS011;46975;51.898;11.444;2023-01-10T02:04:20;5.50;;;2.30;;
61091;SDS011;46975;51.898;11.444;2023-01-10T02:06:53;4.57;;;2.33;;
61091;SDS011;46975;51.898;11.444;2023-01-10T02:09:22;3.85;;;1.80;;
61091;SDS011;46975;51.898;11.444;2023-01-10T02:12:07;1.83;;;1.20;;
61091;SDS011;46975;51.898;11.444;2023-01-10T02:14:33;3.60;;;2.03;;
61091;SDS011;46975;51.898;11.444;2023-01-10T02:17:01;6.18;;;2.05;;
61091;SDS011;46975;51.898;11.444;2023-01-10T02:36:25;4.72;;;1.38;;
61091;SDS011;46975;51.898;11.444;2023-01-10T02:39:14;3.80;;;1.80;;
61091;SDS011;46975;51.898;11.444;2023-01-10T02:42:03;2.40;;;1.70;;
61091;SDS011;46975;51.898;11.444;2023-01-10T02:44:53;4.50;;;1.45;;
61091;SDS011;46975;51.898;11.444;2023-01-10T02:47:26;1.60;;;1.35;;
61091;SDS011;46975;51.898;11.444;2023-01-10T02:50:21;3.42;;;1.80;;
61091;SDS011;46975;51.898;11.444;2023-01-10T02:52:50;6.25;;;2.17;;
61091;SDS011;46975;51.898;11.444;2023-01-10T02:55:16;2.78;;;1.70;;
61091;SDS011;46975;51.898;11.444;2023-01-10T03:00:22;4.38;;;2.15;;
61091;SDS011;46975;51.898;11.444;2023-01-10T03:06:10;3.13;;;2.65;;
61091;SDS011;46975;51.898;11.444;2023-01-10T03:11:37;7.18;;;3.35;;
61091;SDS011;46975;51.898;11.444;2023-01-10T03:14:09;8.02;;;3.38;;
61091;SDS011;46975;51.898;11.444;2023-01-10T03:16:52;3.20;;;2.05;;
61091;SDS011;46975;51.898;11.444;2023-01-10T03:19:24;4.28;;;2.10;;
61091;SDS011;46975;51.898;11.444;2023-01-10T03:21:53;6.20;;;2.55;;
61091;SDS011;46975;51.898;11.444;2023-01-10T03:25:04;2.92;;;2.28;;
61091;SDS011;46975;51.898;11.444;2023-01-10T03:27:15;5.57;;;2.42;;
61091;SDS011;46975;51.898;11.444;2023-01-10T03:32:27;6.38;;;2.92;;
61091;SDS011;46975;51.898;11.444;2023-01-10T03:34:55;6.00;;;2.20;;
61091;SDS011;46975;51.898;11.444;2023-01-10T03:43:20;2.88;;;1.92;;
61091;SDS011;46975;51.898;11.444;2023-01-10T03:46:15;4.43;;;2.80;;
61091;SDS011;46975;51.898;11.444;2023-01-10T03:48:47;11.65;;;2.95;;
61091;SDS011;46975;51.898;11.444;2023-01-10T03:51:13;6.20;;;3.03;;
61091;SDS011;46975;51.898;11.444;2023-01-10T03:53:41;7.00;;;3.22;;
61091;SDS011;46975;51.898;11.444;2023-01-10T03:56:11;3.95;;;3.15;;
61091;SDS011;46975;51.898;11.444;2023-01-10T03:58:38;6.97;;;3.25;;
61091;SDS011;46975;51.898;11.444;2023-01-10T04:01:04;5.55;;;3.05;;
61091;SDS011;46975;51.898;11.444;2023-01-10T04:03:29;12.98;;;5.35;;
61091;SDS011;46975;51.898;11.444;2023-01-10T04:05:55;5.90;;;3.60;;
61091;SDS011;46975;51.898;11.444;2023-01-10T04:08:22;6.35;;;3.42;;
61091;SDS011;46975;51.898;11.444;2023-01-10T04:10:47;6.25;;;4.53;;
61091;SDS011;46975;51.898;11.444;2023-01-10T04:13:13;5.30;;;3.58;;
61091;SDS011;46975;51.898;11.444;2023-01-10T04:15:39;8.57;;;3.97;;
61091;SDS011;46975;51.898;11.444;2023-01-10T04:18:04;5.22;;;3.53;;
61091;SDS011;46975;51.898;11.444;2023-01-10T04:20:30;8.13;;;4.40;;
61091;SDS011;46975;51.898;11.444;2023-01-10T04:22:56;6.10;;;4.13;;
61091;SDS011;46975;51.898;11.444;2023-01-10T04:25:21;8.10;;;4.95;;
61091;SDS011;46975;51.898;11.444;2023-01-10T04:27:50;7.80;;;3.65;;
61091;SDS011;46975;51.898;11.444;2023-01-10T04:32:42;8.55;;;3.47;;
61091;SDS011;46975;51.898;11.444;2023-01-10T04:35:08;8.80;;;4.40;;
61091;SDS011;46975;51.898;11.444;2023-01-10T04:37:34;6.68;;;3.95;;
61091;SDS011;46975;51.898;11.444;2023-01-10T04:40:00;7.75;;;4.32;;
61091;SDS011;46975;51.898;11.444;2023-01-10T04:42:26;5.20;;;3.92;;
61091;SDS011;46975;51.898;11.444;2023-01-10T04:44:51;7.65;;;4.22;;
61091;SDS011;46975;51.898;11.444;2023-01-10T04:47:17;9.13;;;4.50;;
61091;SDS011;46975;51.898;11.444;2023-01-10T04:49:43;7.35;;;4.63;;
61091;SDS011;46975;51.898;11.444;2023-01-10T04:52:09;8.93;;;3.85;;
61091;SDS011;46975;51.898;11.444;2023-01-10T04:54:35;9.00;;;3.78;;
61091;SDS011;46975;51.898;11.444;2023-01-10T04:57:00;12.10;;;3.67;;
61091;SDS011;46975;51.898;11.444;2023-01-10T04:59:26;8.75;;;3.13;;
61091;SDS011;46975;51.898;11.444;2023-01-10T05:01:52;10.57;;;3.75;;
61091;SDS011;46975;51.898;11.444;2023-01-10T05:04:17;6.03;;;3.35;;
61091;SDS011;46975;51.898;11.444;2023-01-10T05:06:43;6.10;;;3.15;;
61091;SDS011;46975;51.898;11.444;2023-01-10T05:09:09;8.13;;;3.25;;
61091;SDS011;46975;51.898;11.444;2023-01-10T05:11:34;5.68;;;2.08;;
61091;SDS011;46975;51.898;11.444;2023-01-10T05:14:00;4.28;;;3.00;;
61091;SDS011;46975;51.898;11.444;2023-01-10T05:16:26;4.00;;;2.28;;
61091;SDS011;46975;51.898;11.444;2023-01-10T05:18:52;4.35;;;3.00;;
61091;SDS011;46975;51.898;11.444;2023-01-10T05:21:18;6.25;;;3.45;;
61091;SDS011;46975;51.898;11.444;2023-01-10T05:23:43;7.00;;;2.75;;
61091;SDS011;46975;51.898;11.444;2023-01-10T05:26:10;5.47;;;3.05;;
61091;SDS011;46975;51.898;11.444;2023-01-10T05:28:42;6.78;;;2.78;;
61091;SDS011;46975;51.898;11.444;2023-01-10T05:31:09;7.22;;;3.58;;
61091;SDS011;46975;51.898;11.444;2023-01-10T05:33:37;8.93;;;3.25;;
61091;SDS011;46975;51.898;11.444;2023-01-10T05:36:03;4.38;;;2.65;;
61091;SDS011;46975;51.898;11.444;2023-01-10T05:38:30;7.63;;;4.45;;
61091;SDS011;46975;51.898;11.444;2023-01-10T05:40:57;6.57;;;3.67;;
61091;SDS011;46975;51.898;11.444;2023-01-10T05:43:24;5.65;;;3.17;;
61091;SDS011;46975;51.898;11.444;2023-01-10T05:45:50;5.93;;;3.35;;
61091;SDS011;46975;51.898;11.444;2023-01-10T05:48:16;5.18;;;3.00;;
61091;SDS011;46975;51.898;11.444;2023-01-10T05:50:43;9.25;;;3.00;;
61091;SDS011;46975;51.898;11.444;2023-01-10T05:53:08;8.90;;;2.80;;
61091;SDS011;46975;51.898;11.444;2023-01-10T05:55:34;5.78;;;2.40;;
61091;SDS011;46975;51.898;11.444;2023-01-10T05:58:00;8.18;;;2.88;;
61091;SDS011;46975;51.898;11.444;2023-01-10T06:00:26;5.88;;;1.98;;
61091;SDS011;46975;51.898;11.444;2023-01-10T06:02:55;5.28;;;2.15;;
61091;SDS011;46975;51.898;11.444;2023-01-10T06:05:21;6.82;;;1.80;;
61091;SDS011;46975;51.898;11.444;2023-01-10T06:07:48;6.90;;;2.35;;
61091;SDS011;46975;51.898;11.444;2023-01-10T06:10:14;3.30;;;1.67;;
61091;SDS011;46975;51.898;11.444;2023-01-10T06:12:40;7.90;;;5.25;;
61091;SDS011;46975;51.898;11.444;2023-01-10T06:15:06;3.63;;;1.15;;
61091;SDS011;46975;51.898;11.444;2023-01-10T06:17:32;4.18;;;2.00;;
61091;SDS011;46975;51.898;11.444;2023-01-10T06:19:58;3.08;;;1.42;;
61091;SDS011;46975;51.898;11.444;2023-01-10T06:22:23;4.47;;;1.60;;
61091;SDS011;46975;51.898;11.444;2023-01-10T06:24:50;6.43;;;1.77;;
61091;SDS011;46975;51.898;11.444;2023-01-10T06:27:16;8.00;;;2.00;;
61091;SDS011;46975;51.898;11.444;2023-01-10T06:29:42;6.32;;;1.60;;
61091;SDS011;46975;51.898;11.444;2023-01-10T06:32:07;6.05;;;1.80;;
61091;SDS011;46975;51.898;11.444;2023-01-10T06:34:33;2.58;;;1.33;;
61091;SDS011;46975;51.898;11.444;2023-01-10T06:36:59;3.63;;;1.27;;
61091;SDS011;46975;51.898;11.444;2023-01-10T06:39:24;4.38;;;2.80;;
61091;SDS011;46975;51.898;11.444;2023-01-10T06:41:50;1.50;;;1.08;;
61091;SDS011;46975;51.898;11.444;2023-01-10T06:44:16;4.22;;;1.50;;
61091;SDS011;46975;51.898;11.444;2023-01-10T06:46:41;4.30;;;1.30;;
61091;SDS011;46975;51.898;11.444;2023-01-10T06:49:07;3.35;;;1.17;;
61091;SDS011;46975;51.898;11.444;2023-01-10T06:51:33;4.05;;;1.05;;
61091;SDS011;46975;51.898;11.444;2023-01-10T06:53:58;3.50;;;1.40;;
61091;SDS011;46975;51.898;11.444;2023-01-10T06:56:24;4.32;;;1.20;;
61091;SDS011;46975;51.898;11.444;2023-01-10T06:58:49;7.55;;;1.60;;
61091;SDS011;46975;51.898;11.444;2023-01-10T07:01:16;9.52;;;1.40;;
61091;SDS011;46975;51.898;11.444;2023-01-10T07:03:43;4.80;;;2.35;;
61091;SDS011;46975;51.898;11.444;2023-01-10T07:06:09;4.45;;;1.67;;
61091;SDS011;46975;51.898;11.444;2023-01-10T07:08:38;3.35;;;1.58;;
61091;SDS011;46975;51.898;11.444;2023-01-10T07:11:05;5.93;;;1.85;;
61091;SDS011;46975;51.898;11.444;2023-01-10T07:13:32;7.43;;;1.92;;
61091;SDS011;46975;51.898;11.444;2023-01-10T07:16:01;5.55;;;1.77;;
61091;SDS011;46975;51.898;11.444;2023-01-10T07:18:35;6.55;;;2.22;;
61091;SDS011;46975;51.898;11.444;2023-01-10T07:21:01;3.63;;;1.58;;
61091;SDS011;46975;51.898;11.444;2023-01-10T07:23:28;5.40;;;1.90;;
61091;SDS011;46975;51.898;11.444;2023-01-10T07:25:55;5.10;;;1.77;;
61091;SDS011;46975;51.898;11.444;2023-01-10T07:28:21;6.38;;;1.88;;
61091;SDS011;46975;51.898;11.444;2023-01-10T07:30:47;11.65;;;2.30;;
61091;SDS011;46975;51.898;11.444;2023-01-10T07:33:13;4.25;;;1.67;;
61091;SDS011;46975;51.898;11.444;2023-01-10T07:35:39;5.32;;;1.88;;
61091;SDS011;46975;51.898;11.444;2023-01-10T07:38:05;13.82;;;2.03;;
61091;SDS011;46975;51.898;11.444;2023-01-10T07:40:31;5.40;;;1.50;;
61091;SDS011;46975;51.898;11.444;2023-01-10T07:42:57;8.77;;;1.42;;
61091;SDS011;46975;51.898;11.444;2023-01-10T07:45:24;3.58;;;1.52;;
61091;SDS011;46975;51.898;11.444;2023-01-10T07:47:54;6.50;;;1.95;;
61091;SDS011;46975;51.898;11.444;2023-01-10T07:50:21;7.22;;;1.70;;
61091;SDS011;46975;51.898;11.444;2023-01-10T07:52:46;5.10;;;2.17;;
61091;SDS011;46975;51.898;11.444;2023-01-10T07:55:12;4.57;;;1.65;;
61091;SDS011;46975;51.898;11.444;2023-01-10T07:57:37;5.82;;;1.85;;
61091;SDS011;46975;51.898;11.444;2023-01-10T08:00:03;4.07;;;1.67;;
61091;SDS011;46975;51.898;11.444;2023-01-10T08:02:29;6.60;;;1.80;;
61091;SDS011;46975;51.898;11.444;2023-01-10T08:04:54;5.78;;;1.80;;
61091;SDS011;46975;51.898;11.444;2023-01-10T08:07:20;6.10;;;2.40;;
61091;SDS011;46975;51.898;11.444;2023-01-10T08:09:46;5.65;;;1.80;;
61091;SDS011;46975;51.898;11.444;2023-01-10T08:12:12;5.90;;;2.10;;
61091;SDS011;46975;51.898;11.444;2023-01-10T08:14:38;4.18;;;2.65;;
61091;SDS011;46975;51.898;11.444;2023-01-10T08:17:03;5.63;;;2.55;;
61091;SDS011;46975;51.898;11.444;2023-01-10T08:19:29;10.75;;;2.67;;
61091;SDS011;46975;51.898;11.444;2023-01-10T08:21:54;6.18;;;1.73;;
61091;SDS011;46975;51.898;11.444;2023-01-10T08:24:20;9.38;;;1.60;;
61091;SDS011;46975;51.898;11.444;2023-01-10T08:26:46;10.52;;;1.73;;
61091;SDS011;46975;51.898;11.444;2023-01-10T08:29:11;12.90;;;1.98;;
61091;SDS011;46975;51.898;11.444;2023-01-10T08:31:39;4.55;;;1.95;;
61091;SDS011;46975;51.898;11.444;2023-01-10T08:34:05;3.60;;;1.15;;
61091;SDS011;46975;51.898;11.444;2023-01-10T08:36:31;8.27;;;1.83;;
61091;SDS011;46975;51.898;11.444;2023-01-10T08:38:56;3.97;;;2.53;;
61091;SDS011;46975;51.898;11.444;2023-01-10T08:41:22;4.18;;;1.60;;
61091;SDS011;46975;51.898;11.444;2023-01-10T08:43:48;9.05;;;1.55;;
61091;SDS011;46975;51.898;11.444;2023-01-10T08:46:14;7.35;;;2.45;;
61091;SDS011;46975;51.898;11.444;2023-01-10T08:48:40;9.52;;;2.65;;
61091;SDS011;46975;51.898;11.444;2023-01-10T08:51:06;6.65;;;2.13;;
61091;SDS011;46975;51.898;11.444;2023-01-10T08:53:33;3.72;;;1.88;;
61091;SDS011;46975;51.898;11.444;2023-01-10T08:55:58;3.88;;;1.50;;
61091;SDS011;46975;51.898;11.444;2023-01-10T08:58:24;6.43;;;2.35;;
61091;SDS011;46975;51.898;11.444;2023-01-10T09:00:50;7.78;;;1.90;;
61091;SDS011;46975;51.898;11.444;2023-01-10T09:03:15;5.80;;;1.88;;
61091;SDS011;46975;51.898;11.444;2023-01-10T09:05:41;8.98;;;1.50;;
61091;SDS011;46975;51.898;11.444;2023-01-10T09:08:08;6.55;;;1.88;;
61091;SDS011;46975;51.898;11.444;2023-01-10T09:10:35;4.13;;;2.15;;
61091;SDS011;46975;51.898;11.444;2023-01-10T09:13:01;6.93;;;2.05;;
61091;SDS011;46975;51.898;11.444;2023-01-10T09:15:29;9.23;;;3.00;;
61091;SDS011;46975;51.898;11.444;2023-01-10T09:17:57;8.75;;;2.25;;
61091;SDS011;46975;51.898;11.444;2023-01-10T09:20:25;6.75;;;2.05;;
61091;SDS011;46975;51.898;11.444;2023-01-10T09:22:52;5.20;;;2.22;;
61091;SDS011;46975;51.898;11.444;2023-01-10T09:25:18;4.93;;;2.20;;
61091;SDS011;46975;51.898;11.444;2023-01-10T09:27:44;4.53;;;2.17;;
61091;SDS011;46975;51.898;11.444;2023-01-10T09:30:10;4.63;;;1.75;;
61091;SDS011;46975;51.898;11.444;2023-01-10T09:32:36;5.82;;;2.30;;
61091;SDS011;46975;51.898;11.444;2023-01-10T09:35:02;7.93;;;3.67;;
61091;SDS011;46975;51.898;11.444;2023-01-10T09:37:28;12.27;;;2.78;;
61091;SDS011;46975;51.898;11.444;2023-01-10T09:39:53;5.20;;;2.58;;
61091;SDS011;46975;51.898;11.444;2023-01-10T09:42:27;7.07;;;1.98;;
61091;SDS011;46975;51.898;11.444;2023-01-10T09:47:41;4.82;;;2.20;;
61091;SDS011;46975;51.898;11.444;2023-01-10T09:50:38;5.15;;;1.77;;
61091;SDS011;46975;51.898;11.444;2023-01-10T09:53:15;5.93;;;2.47;;
61091;SDS011;46975;51.898;11.444;2023-01-10T09:55:54;5.28;;;1.55;;
61091;SDS011;46975;51.898;11.444;2023-01-10T09:58:23;7.10;;;2.50;;
61091;SDS011;46975;51.898;11.444;2023-01-10T10:00:58;6.68;;;3.67;;
61091;SDS011;46975;51.898;11.444;2023-01-10T10:06:28;5.97;;;2.50;;
61091;SDS011;46975;51.898;11.444;2023-01-10T10:08:54;8.23;;;2.58;;
61091;SDS011;46975;51.898;11.444;2023-01-10T10:11:28;9.98;;;2.55;;
61091;SDS011;46975;51.898;11.444;2023-01-10T10:19:58;6.88;;;2.40;;
61091;SDS011;46975;51.898;11.444;2023-01-10T10:22:46;10.73;;;3.65;;
61091;SDS011;46975;51.898;11.444;2023-01-10T10:39:11;11.25;;;3.42;;
61091;SDS011;46975;51.898;11.444;2023-01-10T10:41:42;11.73;;;2.67;;
61091;SDS011;46975;51.898;11.444;2023-01-10T10:47:01;8.63;;;2.20;;
61091;SDS011;46975;51.898;11.444;2023-01-10T10:51:58;5.28;;;2.47;;
61091;SDS011;46975;51.898;11.444;2023-01-10T10:54:26;2.58;;;1.90;;
61091;SDS011;46975;51.898;11.444;2023-01-10T10:56:52;3.55;;;2.35;;
61091;SDS011;46975;51.898;11.444;2023-01-10T10:59:20;4.63;;;1.50;;
61091;SDS011;46975;51.898;11.444;2023-01-10T11:01:46;8.90;;;2.38;;
61091;SDS011;46975;51.898;11.444;2023-01-10T11:04:15;4.60;;;1.88;;
61091;SDS011;46975;51.898;11.444;2023-01-10T11:06:43;5.25;;;2.63;;
61091;SDS011;46975;51.898;11.444;2023-01-10T11:09:13;4.43;;;2.15;;
61091;SDS011;46975;51.898;11.444;2023-01-10T11:11:48;5.03;;;1.30;;
61091;SDS011;46975;51.898;11.444;2023-01-10T11:14:16;5.90;;;2.03;;
61091;SDS011;46975;51.898;11.444;2023-01-10T11:17:16;5.25;;;1.90;;
61091;SDS011;46975;51.898;11.444;2023-01-10T11:20:00;5.50;;;1.35;;
61091;SDS011;46975;51.898;11.444;2023-01-10T11:22:30;3.70;;;2.20;;
61091;SDS011;46975;51.898;11.444;2023-01-10T11:25:18;5.28;;;1.42;;
61091;SDS011;46975;51.898;11.444;2023-01-10T11:27:50;7.80;;;1.98;;
61091;SDS011;46975;51.898;11.444;2023-01-10T11:32:50;4.57;;;2.42;;
61091;SDS011;46975;51.898;11.444;2023-01-10T11:35:18;4.20;;;1.65;;
61091;SDS011;46975;51.898;11.444;2023-01-10T11:38:08;2.10;;;1.10;;
61091;SDS011;46975;51.898;11.444;2023-01-10T11:51:24;3.63;;;1.67;;
61091;SDS011;46975;51.898;11.444;2023-01-10T11:54:36;5.15;;;1.70;;
61091;SDS011;46975;51.898;11.444;2023-01-10T11:56:40;3.85;;;1.60;;
61091;SDS011;46975;51.898;11.444;2023-01-10T11:59:11;3.17;;;1.35;;
61091;SDS011;46975;51.898;11.444;2023-01-10T12:04:23;8.02;;;1.25;;
61091;SDS011;46975;51.898;11.444;2023-01-10T12:06:54;11.38;;;1.83;;
61091;SDS011;46975;51.898;11.444;2023-01-10T12:09:33;1.88;;;1.52;;
61091;SDS011;46975;51.898;11.444;2023-01-10T12:12:05;4.35;;;1.02;;
61091;SDS011;46975;51.898;11.444;2023-01-10T12:14:42;3.58;;;0.80;;
61091;SDS011;46975;51.898;11.444;2023-01-10T12:17:14;8.18;;;2.00;;
61091;SDS011;46975;51.898;11.444;2023-01-10T12:19:43;4.47;;;1.30;;
61091;SDS011;46975;51.898;11.444;2023-01-10T12:22:09;5.00;;;1.92;;
61091;SDS011;46975;51.898;11.444;2023-01-10T12:24:38;2.63;;;1.33;;
61091;SDS011;46975;51.898;11.444;2023-01-10T12:27:10;6.95;;;1.60;;
61091;SDS011;46975;51.898;11.444;2023-01-10T12:29:39;1.90;;;1.02;;
61091;SDS011;46975;51.898;11.444;2023-01-10T12:32:26;3.70;;;1.17;;
61091;SDS011;46975;51.898;11.444;2023-01-10T12:34:59;6.22;;;1.40;;
61091;SDS011;46975;51.898;11.444;2023-01-10T12:37:44;0.80;;;0.80;;
61091;SDS011;46975;51.898;11.444;2023-01-10T12:43:11;5.55;;;1.38;;
61091;SDS011;46975;51.898;11.444;2023-01-10T12:46:21;2.95;;;1.75;;
61091;SDS011;46975;51.898;11.444;2023-01-10T12:49:45;3.22;;;1.45;;
61091;SDS011;46975;51.898;11.444;2023-01-10T12:51:57;4.45;;;2.08;;
61091;SDS011;46975;51.898;11.444;2023-01-10T12:54:28;6.20;;;2.13;;
61091;SDS011;46975;51.898;11.444;2023-01-10T12:56:57;5.07;;;1.65;;
61091;SDS011;46975;51.898;11.444;2023-01-10T12:59:33;3.38;;;1.33;;
61091;SDS011;46975;51.898;11.444;2023-01-10T13:02:03;6.82;;;1.30;;
61091;SDS011;46975;51.898;11.444;2023-01-10T13:04:34;1.88;;;1.77;;
61091;SDS011;46975;51.898;11.444;2023-01-10T13:07:01;4.40;;;1.85;;
61091;SDS011;46975;51.898;11.444;2023-01-10T13:09:28;2.08;;;1.27;;
61091;SDS011;46975;51.898;11.444;2023-01-10T13:14:53;4.57;;;2.13;;
61091;SDS011;46975;51.898;11.444;2023-01-10T13:23:10;3.58;;;2.72;;
61091;SDS011;46975;51.898;11.444;2023-01-10T13:25:52;4.53;;;2.83;;
61091;SDS011;46975;51.898;11.444;2023-01-10T13:28:28;6.53;;;2.45;;
61091;SDS011;46975;51.898;11.444;2023-01-10T13:30:57;7.22;;;2.20;;
61091;SDS011;46975;51.898;11.444;2023-01-10T13:33:32;4.93;;;2.92;;
61091;SDS011;46975;51.898;11.444;2023-01-10T13:36:20;5.72;;;2.65;;
61091;SDS011;46975;51.898;11.444;2023-01-10T13:38:50;4.95;;;2.63;;
61091;SDS011;46975;51.898;11.444;2023-01-10T13:41:19;7.30;;;3.25;;
61091;SDS011;46975;51.898;11.444;2023-01-10T13:46:38;9.15;;;2.55;;
61091;SDS011;46975;51.898;11.444;2023-01-10T13:49:22;3.35;;;2.17;;
61091;SDS011;46975;51.898;11.444;2023-01-10T13:54:54;9.85;;;3.65;;
61091;SDS011;46975;51.898;11.444;2023-01-10T14:00:22;7.18;;;2.80;;
61091;SDS011;46975;51.898;11.444;2023-01-10T14:09:02;5.50;;;2.83;;
61091;SDS011;46975;51.898;11.444;2023-01-10T14:11:31;6.15;;;3.00;;
61091;SDS011;46975;51.898;11.444;2023-01-10T14:14:16;16.83;;;7.18;;
61091;SDS011;46975;51.898;11.444;2023-01-10T14:16:51;18.27;;;8.25;;
61091;SDS011;46975;51.898;11.444;2023-01-10T14:19:30;11.80;;;4.28;;
61091;SDS011;46975;51.898;11.444;2023-01-10T14:21:58;13.57;;;4.47;;
61091;SDS011;46975;51.898;11.444;2023-01-10T14:24:27;24.92;;;7.30;;
61091;SDS011;46975;51.898;11.444;2023-01-10T14:27:02;25.27;;;8.38;;
61091;SDS011;46975;51.898;11.444;2023-01-10T14:29:29;14.23;;;7.20;;
61091;SDS011;46975;51.898;11.444;2023-01-10T14:31:57;7.75;;;3.30;;
61091;SDS011;46975;51.898;11.444;2023-01-10T14:34:26;7.97;;;4.80;;
61091;SDS011;46975;51.898;11.444;2023-01-10T14:37:14;7.03;;;3.80;;
61091;SDS011;46975;51.898;11.444;2023-01-10T14:39:53;7.72;;;5.13;;
61091;SDS011;46975;51.898;11.444;2023-01-10T14:42:20;7.30;;;3.50;;
61091;SDS011;46975;51.898;11.444;2023-01-10T14:44:53;4.80;;;3.38;;
61091;SDS011;46975;51.898;11.444;2023-01-10T14:47:27;4.20;;;2.85;;
61091;SDS011;46975;51.898;11.444;2023-01-10T14:52:25;9.10;;;2.70;;
61091;SDS011;46975;51.898;11.444;2023-01-10T14:55:01;2.95;;;2.17;;
61091;SDS011;46975;51.898;11.444;2023-01-10T14:57:28;4.03;;;2.45;;
61091;SDS011;46975;51.898;11.444;2023-01-10T15:00:04;7.75;;;4.40;;
61091;SDS011;46975;51.898;11.444;2023-01-10T15:02:32;8.10;;;3.80;;
61091;SDS011;46975;51.898;11.444;2023-01-10T15:05:10;12.27;;;4.95;;
61091;SDS011;46975;51.898;11.444;2023-01-10T15:07:51;9.85;;;5.68;;
61091;SDS011;46975;51.898;11.444;2023-01-10T15:10:24;11.65;;;6.30;;
61091;SDS011;46975;51.898;11.444;2023-01-10T15:12:56;16.23;;;4.53;;
61091;SDS011;46975;51.898;11.444;2023-01-10T15:15:29;11.88;;;4.55;;
61091;SDS011;46975;51.898;11.444;2023-01-10T15:18:01;13.23;;;6.00;;
61091;SDS011;46975;51.898;11.444;2023-01-10T15:20:36;16.83;;;7.68;;
61091;SDS011;46975;51.898;11.444;2023-01-10T15:23:03;16.92;;;9.55;;
61091;SDS011;46975;51.898;11.444;2023-01-10T15:25:30;13.90;;;7.15;;
61091;SDS011;46975;51.898;11.444;2023-01-10T15:28:02;9.38;;;5.03;;
61091;SDS011;46975;51.898;11.444;2023-01-10T15:30:29;9.75;;;4.80;;
61091;SDS011;46975;51.898;11.444;2023-01-10T15:33:01;24.38;;;10.05;;
61091;SDS011;46975;51.898;11.444;2023-01-10T15:35:29;24.20;;;13.35;;
61091;SDS011;46975;51.898;11.444;2023-01-10T15:37:57;20.45;;;10.18;;
61091;SDS011;46975;51.898;11.444;2023-01-10T15:40:29;17.33;;;9.05;;
61091;SDS011;46975;51.898;11.444;2023-01-10T15:45:53;8.60;;;4.65;;
61091;SDS011;46975;51.898;11.444;2023-01-10T15:48:29;11.13;;;5.70;;
61091;SDS011;46975;51.898;11.444;2023-01-10T15:56:40;8.73;;;4.88;;
61091;SDS011;46975;51.898;11.444;2023-01-10T15:59:19;10.88;;;4.55;;
61091;SDS011;46975;51.898;11.444;2023-01-10T16:02:00;7.57;;;3.45;;
61091;SDS011;46975;51.898;11.444;2023-01-10T16:04:53;7.60;;;3.45;;
61091;SDS011;46975;51.898;11.444;2023-01-10T16:09:50;8.82;;;4.15;;
61091;SDS011;46975;51.898;11.444;2023-01-10T16:12:43;15.65;;;6.18;;
61091;SDS011;46975;51.898;11.444;2023-01-10T16:15:28;13.65;;;5.25;;
61091;SDS011;46975;51.898;11.444;2023-01-10T16:17:55;11.45;;;5.03;;
61091;SDS011;46975;51.898;11.444;2023-01-10T16:20:31;7.07;;;3.00;;
61091;SDS011;46975;51.898;11.444;2023-01-10T16:23:02;8.73;;;2.50;;
61091;SDS011;46975;51.898;11.444;2023-01-10T16:25:36;6.50;;;3.28;;
61091;SDS011;46975;51.898;11.444;2023-01-10T16:28:03;5.68;;;2.45;;
61091;SDS011;46975;51.898;11.444;2023-01-10T16:30:30;12.75;;;4.22;;
61091;SDS011;46975;51.898;11.444;2023-01-10T16:33:02;9.95;;;2.15;;
61091;SDS011;46975;51.898;11.444;2023-01-10T16:35:35;15.50;;;4.32;;
61091;SDS011;46975;51.898;11.444;2023-01-10T16:38:00;9.55;;;3.22;;
61091;SDS011;46975;51.898;11.444;2023-01-10T16:40:28;13.63;;;3.70;;
61091;SDS011;46975;51.898;11.444;2023-01-10T16:42:58;8.85;;;3.05;;
61091;SDS011;46975;51.898;11.444;2023-01-10T16:45:43;10.00;;;4.60;;
61091;SDS011;46975;51.898;11.444;2023-01-10T16:48:10;15.85;;;6.68;;
61091;SDS011;46975;51.898;11.444;2023-01-10T16:50:36;11.60;;;4.72;;
61091;SDS011;46975;51.898;11.444;2023-01-10T16:53:02;13.95;;;5.07;;
61091;SDS011;46975;51.898;11.444;2023-01-10T16:55:42;10.82;;;5.40;;
61091;SDS011;46975;51.898;11.444;2023-01-10T16:58:15;12.98;;;5.70;;
61091;SDS011;46975;51.898;11.444;2023-01-10T17:00:44;10.25;;;4.82;;